Time;durP1;ratioP1;P1;durP2;ratioP2;P2;SDS_P1;SDS_P2;PMS_P1;PMS_P2;Temp;Humidity;BMP_temperature;BMP_pressure;BME280_temperature;BME280_humidity;BME280_pressure;Samples;Min_cycle;Max_cycle;Signal;HPM_P1;HPM_P2
2022/03/05 00:00:56;;;;;;;69.03;21.30;;;-0.80;99.90;;;;;;5011811;28;20504;-71
2022/03/05 00:03:24;;;;;;;63.77;19.93;;;-1.00;99.90;;;;;;5011295;28;20458;-71
2022/03/05 00:05:50;;;;;;;64.73;20.13;;;-0.80;99.90;;;;;;5011741;28;20493;-71
2022/03/05 00:08:17;;;;;;;58.50;19.80;;;-0.90;99.90;;;;;;5011056;28;20508;-70
2022/03/05 00:10:44;;;;;;;56.57;19.43;;;-0.90;99.90;;;;;;5011792;28;20986;-71
2022/03/05 00:13:11;;;;;;;66.77;20.70;;;-0.90;99.90;;;;;;5010908;28;20923;-71
2022/03/05 00:15:38;;;;;;;60.87;19.83;;;-0.80;99.90;;;;;;5011688;28;20477;-71
2022/03/05 00:18:06;;;;;;;69.60;18.47;;;-0.60;99.90;;;;;;5011111;28;20466;-71
2022/03/05 00:20:33;;;;;;;57.67;18.40;;;-0.90;99.90;;;;;;5011018;28;20546;-71
2022/03/05 00:22:59;;;;;;;59.40;20.90;;;-0.90;99.90;;;;;;5010927;28;20954;-71
2022/03/05 00:25:26;;;;;;;57.33;20.63;;;-0.80;99.90;;;;;;5010751;28;20477;-71
2022/03/05 00:27:54;;;;;;;74.50;20.30;;;-0.70;99.90;;;;;;5011710;28;20500;-71
2022/03/05 00:30:21;;;;;;;68.43;20.63;;;-1.00;99.90;;;;;;5010692;28;20533;-71
2022/03/05 00:32:48;;;;;;;62.63;19.40;;;-0.90;99.90;;;;;;5011528;28;20454;-71
2022/03/05 00:35:17;;;;;;;60.27;21.57;;;-1.00;99.90;;;;;;5011013;28;20450;-72
2022/03/05 00:37:44;;;;;;;60.77;18.83;;;-0.90;99.90;;;;;;5011108;28;20541;-71
2022/03/05 00:40:11;;;;;;;68.90;21.73;;;-1.00;99.90;;;;;;5010704;28;20477;-72
2022/03/05 00:42:38;;;;;;;62.30;21.30;;;-1.00;99.90;;;;;;5010746;28;20450;-71
2022/03/05 00:45:06;;;;;;;58.10;19.60;;;-0.50;99.90;;;;;;5010117;28;20453;-71
2022/03/05 00:47:33;;;;;;;64.53;19.60;;;-0.60;99.90;;;;;;5010476;28;20541;-71
2022/03/05 00:50:00;;;;;;;58.70;20.03;;;-1.10;99.90;;;;;;5011136;28;20450;-71
2022/03/05 00:52:28;;;;;;;73.60;21.57;;;-0.60;99.90;;;;;;5010680;28;20552;-71
2022/03/05 00:54:55;;;;;;;70.63;21.67;;;-1.10;99.90;;;;;;5010796;28;20508;-72
2022/03/05 00:57:21;;;;;;;64.90;19.77;;;-0.90;99.90;;;;;;5009762;28;20470;-71
2022/03/05 00:59:48;;;;;;;63.20;20.17;;;-1.10;99.90;;;;;;5010562;28;20446;-71
2022/03/05 01:02:15;;;;;;;72.07;20.33;;;-1.20;99.90;;;;;;5010308;28;20467;-71
2022/03/05 01:04:41;;;;;;;73.27;20.07;;;-1.20;99.90;;;;;;5004520;28;20963;-71
2022/03/05 01:07:08;;;;;;;56.03;19.13;;;-1.10;99.90;;;;;;5010506;28;20470;-71
2022/03/05 01:09:36;;;;;;;66.13;20.77;;;-1.20;99.90;;;;;;5010389;28;20501;-71
2022/03/05 01:12:04;;;;;;;76.77;20.23;;;-1.00;99.90;;;;;;5010462;28;20555;-71
2022/03/05 01:14:30;;;;;;;62.57;19.90;;;-1.20;99.90;;;;;;5009472;28;20450;-71
2022/03/05 01:16:57;;;;;;;63.97;20.73;;;-1.30;99.90;;;;;;5010272;28;20462;-72
2022/03/05 01:19:24;;;;;;;59.00;18.67;;;-1.30;99.90;;;;;;5010542;28;20454;-72
2022/03/05 01:21:50;;;;;;;64.77;20.27;;;-1.20;99.90;;;;;;5009839;28;20456;-71
2022/03/05 01:24:17;;;;;;;60.33;20.47;;;-1.40;99.90;;;;;;5009684;28;20458;-72
2022/03/05 01:26:45;;;;;;;63.70;19.03;;;-1.40;99.90;;;;;;5004503;28;20561;-72
2022/03/05 01:29:12;;;;;;;61.83;19.13;;;-1.40;99.90;;;;;;5009479;28;20505;-72
2022/03/05 01:31:39;;;;;;;66.00;18.73;;;-1.50;99.90;;;;;;5009716;28;20478;-72
2022/03/05 01:34:05;;;;;;;58.30;19.67;;;-1.30;99.90;;;;;;5009415;28;20509;-72
2022/03/05 01:36:32;;;;;;;69.03;19.97;;;-1.50;99.90;;;;;;5010005;28;20469;-72
2022/03/05 01:38:59;;;;;;;74.33;19.03;;;-1.50;99.90;;;;;;5009515;28;20457;-71
2022/03/05 01:41:27;;;;;;;59.20;19.10;;;-1.50;99.90;;;;;;5010076;28;20453;-72
2022/03/05 01:43:55;;;;;;;60.43;19.23;;;-1.40;99.90;;;;;;5009187;28;20458;-72
2022/03/05 01:46:30;;;;;;;61.80;18.37;;;-1.20;99.90;;;;;;5009286;28;20525;-72
2022/03/05 01:48:57;;;;;;;67.97;20.47;;;-1.60;99.90;;;;;;5010016;28;20450;-72
2022/03/05 01:51:24;;;;;;;67.97;21.30;;;-1.40;99.90;;;;;;5010265;28;20974;-71
2022/03/05 01:53:50;;;;;;;57.27;19.20;;;-1.70;99.90;;;;;;5009494;28;20800;-71
2022/03/05 01:56:18;;;;;;;65.37;18.80;;;-1.70;99.90;;;;;;5008799;28;21014;-72
2022/03/05 01:58:45;;;;;;;65.70;20.00;;;-1.70;99.90;;;;;;5009968;28;20454;-72
2022/03/05 02:01:13;;;;;;;63.37;20.93;;;-1.70;99.90;;;;;;5009825;28;20458;-72
2022/03/05 02:03:40;;;;;;;68.90;19.77;;;-1.80;99.90;;;;;;5009504;28;20493;-72
2022/03/05 02:06:07;;;;;;;71.40;19.97;;;-1.90;99.90;;;;;;5009472;28;20565;-72
2022/03/05 02:08:34;;;;;;;67.30;20.50;;;-1.80;99.90;;;;;;5009802;28;20446;-72
2022/03/05 02:11:01;;;;;;;61.40;20.10;;;-1.90;99.90;;;;;;5012859;28;20457;-72
2022/03/05 02:13:28;;;;;;;70.20;22.07;;;-2.00;99.90;;;;;;5013293;28;20457;-72
2022/03/05 02:15:55;;;;;;;77.03;20.67;;;-2.10;99.90;;;;;;5014057;28;20465;-72
2022/03/05 02:18:23;;;;;;;72.13;20.80;;;-2.00;99.90;;;;;;5013457;28;20811;-72
2022/03/05 02:20:51;;;;;;;68.13;20.77;;;-2.10;99.90;;;;;;5014203;28;20504;-72
2022/03/05 02:23:18;;;;;;;71.00;20.77;;;-1.90;99.90;;;;;;5013110;28;20505;-72
2022/03/05 02:25:53;;;;;;;75.23;23.13;;;-2.00;99.90;;;;;;5013688;28;20493;-72
2022/03/05 02:28:20;;;;;;;70.80;20.80;;;-2.10;99.90;;;;;;5013829;28;20540;-72
2022/03/05 02:30:46;;;;;;;75.83;21.33;;;-1.60;99.90;;;;;;5013731;28;20965;-72
2022/03/05 02:33:14;;;;;;;75.23;20.23;;;-2.10;99.90;;;;;;5013006;28;20482;-72
2022/03/05 02:35:40;;;;;;;79.70;24.50;;;-2.10;99.90;;;;;;5013318;28;20548;-71
2022/03/05 02:38:08;;;;;;;69.97;21.40;;;-2.10;99.90;;;;;;5013293;28;20861;-71
2022/03/05 02:40:35;;;;;;;77.57;22.40;;;-2.10;99.90;;;;;;5013241;28;20505;-71
2022/03/05 02:43:02;;;;;;;64.53;21.13;;;-2.10;99.90;;;;;;5012657;28;21016;-72
2022/03/05 02:45:29;;;;;;;61.30;20.87;;;-1.00;99.90;;;;;;5012158;28;20528;-72
2022/03/05 02:47:55;;;;;;;74.17;22.50;;;-2.10;99.90;;;;;;5013036;28;21040;-72
2022/03/05 02:50:22;;;;;;;76.93;20.50;;;-2.20;99.90;;;;;;5011703;28;20873;-72
2022/03/05 02:52:48;;;;;;;79.77;22.37;;;-2.10;99.90;;;;;;5013407;28;20478;-72
2022/03/05 02:55:16;;;;;;;72.83;21.47;;;-2.10;99.90;;;;;;5012814;28;20512;-72
2022/03/05 02:57:44;;;;;;;71.03;22.73;;;-2.20;99.90;;;;;;5013458;28;20981;-71
2022/03/05 03:00:12;;;;;;;74.27;21.43;;;-2.20;99.90;;;;;;5012505;28;20453;-72
2022/03/05 03:02:39;;;;;;;70.00;21.83;;;-2.20;99.90;;;;;;5013156;28;20442;-72
2022/03/05 03:05:06;;;;;;;75.30;21.93;;;-2.00;99.90;;;;;;5012462;28;20945;-71
2022/03/05 03:07:32;;;;;;;69.93;20.03;;;-2.20;99.90;;;;;;5012362;28;20994;-71
2022/03/05 03:09:59;;;;;;;70.87;21.40;;;-2.20;99.90;;;;;;5013011;28;20504;-72
2022/03/05 03:12:27;;;;;;;77.67;21.23;;;-2.20;99.90;;;;;;5012609;28;20566;-72
2022/03/05 03:14:54;;;;;;;74.50;22.93;;;-2.20;99.90;;;;;;5012344;28;20450;-72
2022/03/05 03:17:21;;;;;;;67.67;21.17;;;-2.20;99.90;;;;;;5012014;28;20536;-72
2022/03/05 03:19:47;;;;;;;66.00;20.20;;;-2.30;99.90;;;;;;5013043;28;20454;-72
2022/03/05 03:22:14;;;;;;;79.33;20.97;;;-2.30;99.90;;;;;;5011866;28;20535;-73
2022/03/05 03:24:41;;;;;;;59.23;19.77;;;-1.80;99.90;;;;;;5012484;28;20466;-71
2022/03/05 03:27:08;;;;;;;72.47;19.97;;;-2.30;99.90;;;;;;5012054;28;20518;-71
2022/03/05 03:29:37;;;;;;;73.00;21.20;;;-2.10;99.90;;;;;;5012640;28;20950;-73
2022/03/05 03:32:04;;;;;;;73.60;20.57;;;-2.40;99.90;;;;;;5012385;28;20490;-72
2022/03/05 03:34:31;;;;;;;76.07;19.37;;;-2.40;99.90;;;;;;5012505;28;20446;-71
2022/03/05 03:36:58;;;;;;;69.03;20.57;;;-2.40;99.90;;;;;;5012251;28;20470;-71
2022/03/05 03:39:24;;;;;;;71.10;20.50;;;-2.50;99.90;;;;;;5011752;28;20450;-72
2022/03/05 03:41:51;;;;;;;59.37;20.50;;;-2.40;99.90;;;;;;5012522;28;20508;-72
2022/03/05 03:44:18;;;;;;;72.67;20.93;;;-2.50;99.90;;;;;;5011570;28;20512;-72
2022/03/05 03:46:46;;;;;;;68.80;20.90;;;-2.50;99.90;;;;;;5009008;28;20982;-72
2022/03/05 03:49:12;;;;;;;75.10;21.40;;;-2.50;99.90;;;;;;5012288;28;20462;-72
2022/03/05 03:51:39;;;;;;;64.63;19.40;;;-2.50;99.90;;;;;;5012300;28;21088;-72
2022/03/05 03:54:06;;;;;;;59.90;19.00;;;-2.00;99.90;;;;;;5011378;28;20458;-72
2022/03/05 03:56:33;;;;;;;69.73;19.60;;;-2.50;99.90;;;;;;5011943;28;20473;-72
2022/03/05 03:58:59;;;;;;;68.17;18.93;;;-2.50;99.90;;;;;;5011492;28;20454;-72
2022/03/05 04:01:26;;;;;;;65.20;19.60;;;-2.40;99.90;;;;;;5011282;28;20454;-71
2022/03/05 04:03:54;;;;;;;77.90;20.67;;;-2.40;99.90;;;;;;5011871;28;20489;-72
2022/03/05 04:06:21;;;;;;;70.93;19.80;;;-2.40;99.90;;;;;;5009943;28;20478;-72
2022/03/05 04:08:46;;;;;;;76.97;19.63;;;-2.40;99.90;;;;;;5011460;28;20458;-71
2022/03/05 04:11:18;;;;;;;72.23;20.37;;;-1.70;99.90;;;;;;5011076;28;20457;-71
2022/03/05 04:13:45;;;;;;;82.90;20.60;;;-2.40;99.90;;;;;;5011679;28;20728;-71
2022/03/05 04:16:12;;;;;;;66.00;21.50;;;-1.70;99.90;;;;;;5011711;28;20474;-72
2022/03/05 04:18:39;;;;;;;75.07;21.03;;;-2.50;99.90;;;;;;5011736;28;20450;-72
2022/03/05 04:21:08;;;;;;;71.60;20.70;;;-1.70;99.90;;;;;;5011386;28;20532;-72
2022/03/05 04:23:36;;;;;;;66.87;18.97;;;-2.50;99.90;;;;;;5007902;28;20446;-71
2022/03/05 04:26:02;;;;;;;66.20;20.70;;;-2.50;99.90;;;;;;5011008;28;20489;-71
2022/03/05 04:28:29;;;;;;;76.17;20.83;;;-2.30;99.90;;;;;;5011860;28;20450;-71
2022/03/05 04:30:56;;;;;;;68.50;20.40;;;-2.60;99.90;;;;;;5011691;28;20458;-71
2022/03/05 04:33:22;;;;;;;59.10;19.07;;;-2.60;99.90;;;;;;5010208;28;20493;-72
2022/03/05 04:35:49;;;;;;;60.80;18.57;;;-2.60;99.90;;;;;;5011156;28;20482;-72
2022/03/05 04:38:17;;;;;;;66.87;20.27;;;-1.80;99.90;;;;;;5010741;28;20454;-72
2022/03/05 04:40:44;;;;;;;62.90;18.43;;;-2.70;99.90;;;;;;5011119;28;20505;-72
2022/03/05 04:43:10;;;;;;;53.20;17.70;;;-2.70;99.90;;;;;;5010836;28;20450;-72
2022/03/05 04:45:37;;;;;;;59.57;17.07;;;-2.70;99.90;;;;;;5005770;28;20514;-72
2022/03/05 04:48:04;;;;;;;64.60;17.70;;;-2.70;99.90;;;;;;5011055;28;20458;-72
2022/03/05 04:50:31;;;;;;;57.67;17.27;;;-2.80;99.90;;;;;;5011294;28;20454;-72
2022/03/05 04:52:58;;;;;;;65.07;18.53;;;-2.10;99.90;;;;;;5010387;28;21052;-72
2022/03/05 04:55:26;;;;;;;61.53;21.03;;;-2.80;99.90;;;;;;5010545;28;20528;-71
2022/03/05 04:57:53;;;;;;;65.10;17.80;;;-2.80;99.90;;;;;;5010726;28;20454;-72
2022/03/05 05:00:19;;;;;;;55.33;18.00;;;-2.80;99.90;;;;;;5011090;28;20458;-72
2022/03/05 05:02:46;;;;;;;53.10;18.27;;;-2.80;99.90;;;;;;5010945;28;20554;-72
2022/03/05 05:05:13;;;;;;;56.87;17.80;;;-2.80;99.90;;;;;;5010392;28;20513;-72
2022/03/05 05:07:39;;;;;;;55.83;18.93;;;-2.90;99.90;;;;;;5004268;28;20462;-72
2022/03/05 05:10:07;;;;;;;61.50;19.70;;;-2.90;99.90;;;;;;5010745;28;20524;-71
2022/03/05 05:12:35;;;;;;;69.40;20.47;;;-3.00;99.90;;;;;;5011005;28;20494;-72
2022/03/05 05:15:02;;;;;;;69.70;21.67;;;-3.00;99.90;;;;;;5010137;28;20611;-72
2022/03/05 05:17:28;;;;;;;68.47;20.10;;;-3.00;99.90;;;;;;5010523;28;20454;-72
2022/03/05 05:19:55;;;;;;;72.10;20.17;;;-3.60;99.90;;;;;;5010527;28;20454;-72
2022/03/05 05:22:22;;;;;;;68.93;20.90;;;-3.00;99.90;;;;;;5010137;28;20458;-72
2022/03/05 05:24:48;;;;;;;77.90;19.40;;;-3.00;99.90;;;;;;5010118;28;20451;-72
2022/03/05 05:27:15;;;;;;;81.30;20.63;;;-2.40;99.90;;;;;;5009068;28;20474;-72
2022/03/05 05:29:43;;;;;;;68.83;22.17;;;-3.10;99.90;;;;;;5010615;28;20458;-72
2022/03/05 05:32:11;;;;;;;75.03;20.07;;;-3.10;99.90;;;;;;5010548;28;20461;-72
2022/03/05 05:34:37;;;;;;;67.30;20.83;;;-3.10;99.90;;;;;;5009725;28;20537;-72
2022/03/05 05:37:04;;;;;;;66.10;19.90;;;-3.10;99.90;;;;;;5009707;28;20489;-72
2022/03/05 05:39:31;;;;;;;76.33;23.47;;;-3.10;99.90;;;;;;5009593;28;20782;-73
2022/03/05 05:41:57;;;;;;;71.77;19.63;;;-3.10;99.90;;;;;;5010612;28;20461;-72
2022/03/05 05:44:24;;;;;;;75.80;20.53;;;-3.10;99.90;;;;;;5009644;28;20450;-73
2022/03/05 05:46:52;;;;;;;68.03;18.80;;;-3.10;99.90;;;;;;5009982;28;20490;-72
2022/03/05 05:49:19;;;;;;;75.23;19.03;;;-3.10;99.90;;;;;;5009313;28;20454;-72
2022/03/05 05:51:46;;;;;;;83.93;20.40;;;-3.10;99.90;;;;;;5010257;28;20484;-71
2022/03/05 05:54:12;;;;;;;63.03;20.00;;;-3.10;99.90;;;;;;5009629;28;20481;-71
2022/03/05 05:56:39;;;;;;;75.70;21.40;;;-3.10;99.90;;;;;;5007354;28;20478;-72
2022/03/05 05:59:06;;;;;;;73.53;21.50;;;-3.00;99.90;;;;;;5009132;28;20816;-73
2022/03/05 06:01:33;;;;;;;64.17;19.40;;;-3.00;99.90;;;;;;5007657;28;20462;-72
2022/03/05 06:04:01;;;;;;;75.47;21.93;;;-3.00;99.90;;;;;;5004682;28;21024;-72
2022/03/05 06:06:28;;;;;;;63.53;20.73;;;-3.00;99.90;;;;;;5008840;28;20486;-72
2022/03/05 06:08:55;;;;;;;65.53;20.50;;;-2.40;99.90;;;;;;5010134;28;20446;-72
2022/03/05 06:11:22;;;;;;;64.30;19.17;;;-2.90;99.90;;;;;;5009676;28;20504;-72
2022/03/05 06:13:49;;;;;;;80.37;20.90;;;-2.80;99.90;;;;;;5006703;28;20496;-72
2022/03/05 06:16:16;;;;;;;64.83;21.00;;;-2.60;99.90;;;;;;5009139;28;20536;-73
2022/03/05 06:18:42;;;;;;;63.10;19.27;;;-2.90;99.90;;;;;;5009731;28;20454;-72
2022/03/05 06:21:10;;;;;;;68.93;19.63;;;-2.40;99.90;;;;;;5009731;28;20504;-72
2022/03/05 06:23:37;;;;;;;69.53;19.17;;;-2.80;99.90;;;;;;5009653;28;20939;-73
2022/03/05 06:26:05;;;;;;;64.40;19.87;;;-2.80;99.90;;;;;;5010121;28;20557;-72
2022/03/05 06:28:31;;;;;;;67.07;20.73;;;-1.60;99.90;;;;;;5008331;28;20864;-73
2022/03/05 06:30:58;;;;;;;70.83;21.17;;;-1.90;99.90;;;;;;5009508;28;20808;-73
2022/03/05 06:33:25;;;;;;;62.97;19.37;;;-1.70;99.90;;;;;;5009354;28;20556;-72
2022/03/05 06:35:52;;;;;;;65.80;19.13;;;-2.20;99.90;;;;;;5008947;28;20544;-72
2022/03/05 06:38:20;;;;;;;60.73;21.60;;;-1.80;99.90;;;;;;5008311;28;20454;-73
2022/03/05 06:40:47;;;;;;;63.93;21.83;;;-1.50;99.90;;;;;;5003849;28;20454;-73
2022/03/05 06:43:15;;;;;;;63.43;20.10;;;-0.50;99.90;;;;;;5008740;28;21007;-74
2022/03/05 06:45:42;;;;;;;64.07;20.30;;;-0.80;99.90;;;;;;5008034;28;20486;-73
2022/03/05 06:48:09;;;;;;;62.70;20.10;;;-0.30;99.90;;;;;;5009584;28;20865;-72
2022/03/05 06:50:36;;;;;;;57.20;21.00;;;0.10;99.90;;;;;;5009336;28;20450;-72
2022/03/05 06:53:04;;;;;;;61.80;21.63;;;1.00;99.90;;;;;;5009554;28;20492;-72
2022/03/05 06:55:32;;;;;;;60.33;19.80;;;1.10;99.90;;;;;;5009186;28;20485;-72
2022/03/05 06:57:59;;;;;;;63.43;20.57;;;1.20;99.90;;;;;;5012243;28;20981;-72
2022/03/05 07:00:26;;;;;;;52.23;18.50;;;1.80;99.90;;;;;;5012475;28;20508;-72
2022/03/05 07:02:52;;;;;;;57.60;18.67;;;2.00;99.90;;;;;;5012926;28;20450;-72
2022/03/05 07:05:19;;;;;;;54.10;18.90;;;2.40;99.90;;;;;;5012336;28;20486;-71
2022/03/05 07:07:46;;;;;;;55.00;19.83;;;2.80;99.90;;;;;;5006743;28;20457;-72
2022/03/05 07:10:13;;;;;;;52.37;19.23;;;3.20;99.90;;;;;;5012093;28;20454;-73
2022/03/05 07:12:41;;;;;;;60.93;20.50;;;3.50;99.90;;;;;;5012202;28;20442;-71
2022/03/05 07:15:09;;;;;;;59.97;20.03;;;3.90;99.90;;;;;;5012529;28;20450;-73
2022/03/05 07:17:36;;;;;;;60.93;21.60;;;4.30;99.90;;;;;;5011864;28;20481;-72
2022/03/05 07:20:03;;;;;;;54.17;20.43;;;4.60;99.90;;;;;;5012656;28;20461;-71
2022/03/05 07:22:29;;;;;;;56.20;21.47;;;5.00;99.90;;;;;;5010992;28;20458;-73
2022/03/05 07:24:56;;;;;;;54.03;20.03;;;5.30;99.90;;;;;;5012211;28;20450;-73
2022/03/05 07:27:23;;;;;;;55.00;19.43;;;5.70;99.90;;;;;;5012376;28;20466;-73
2022/03/05 07:29:51;;;;;;;57.70;20.43;;;6.00;99.90;;;;;;5012231;28;20508;-73
2022/03/05 07:32:17;;;;;;;59.57;21.57;;;6.20;99.90;;;;;;5012276;28;20517;-72
2022/03/05 07:34:44;;;;;;;54.53;22.33;;;6.40;99.90;;;;;;5011997;28;20478;-73
2022/03/05 07:37:11;;;;;;;55.80;22.67;;;6.70;99.90;;;;;;5011145;28;20477;-72
2022/03/05 07:39:37;;;;;;;57.07;20.20;;;7.00;99.90;;;;;;5011506;28;20450;-73
2022/03/05 07:42:05;;;;;;;58.50;20.70;;;7.20;99.90;;;;;;5011486;28;21022;-73
2022/03/05 07:44:32;;;;;;;47.47;19.20;;;7.50;99.90;;;;;;5011506;28;20458;-72
2022/03/05 07:47:00;;;;;;;52.47;19.43;;;7.50;99.90;;;;;;5011249;28;20478;-73
2022/03/05 07:49:27;;;;;;;57.40;21.67;;;7.90;99.90;;;;;;5010359;28;20461;-73
2022/03/05 07:51:56;;;;;;;50.30;20.20;;;8.00;99.90;;;;;;5011043;28;20458;-71
2022/03/05 07:54:22;;;;;;;48.77;19.90;;;8.00;99.90;;;;;;5010800;28;21007;-71
2022/03/05 07:56:49;;;;;;;50.10;19.27;;;8.30;99.90;;;;;;5004968;28;20524;-72
2022/03/05 07:59:16;;;;;;;45.00;18.40;;;8.20;99.90;;;;;;5002516;28;20926;-72
2022/03/05 08:01:43;;;;;;;45.70;20.20;;;8.10;99.90;;;;;;5011048;28;20558;-71
2022/03/05 08:04:11;;;;;;;49.80;20.30;;;8.00;99.90;;;;;;5010953;28;20508;-72
2022/03/05 08:06:38;;;;;;;53.20;20.80;;;7.80;99.90;;;;;;5011027;28;20466;-72
2022/03/05 08:09:05;;;;;;;51.33;21.17;;;7.40;99.90;;;;;;5010455;28;20488;-72
2022/03/05 08:11:31;;;;;;;52.17;20.80;;;7.40;99.90;;;;;;5010533;28;20862;-72
2022/03/05 08:13:58;;;;;;;42.43;18.90;;;7.20;99.90;;;;;;5009321;28;20856;-72
2022/03/05 08:16:25;;;;;;;44.27;18.63;;;7.20;99.90;;;;;;5009090;28;20508;-72
2022/03/05 08:18:51;;;;;;;42.70;19.13;;;7.00;99.90;;;;;;5009178;28;20977;-73
2022/03/05 08:21:21;;;;;;;40.97;20.23;;;6.90;99.90;;;;;;5008113;28;20995;-72
2022/03/05 08:23:47;;;;;;;44.13;19.57;;;6.90;99.90;;;;;;5010923;28;20496;-72
2022/03/05 08:26:14;;;;;;;42.67;20.70;;;6.60;99.90;;;;;;5010435;28;20451;-72
2022/03/05 08:28:42;;;;;;;47.70;21.20;;;6.70;99.90;;;;;;5010346;28;20261;-70
2022/03/05 08:31:09;;;;;;;49.80;20.07;;;6.60;99.90;;;;;;5011182;28;20454;-72
2022/03/05 08:33:36;;;;;;;42.67;18.90;;;6.60;99.90;;;;;;5009747;28;20506;-71
2022/03/05 08:36:03;;;;;;;47.40;21.27;;;6.60;99.90;;;;;;5007654;28;20478;-71
2022/03/05 08:38:33;;;;;;;54.93;21.27;;;6.80;99.90;;;;;;5009110;28;20450;-71
2022/03/05 08:41:00;;;;;;;42.13;20.10;;;7.00;99.90;;;;;;5008143;28;20557;-71
2022/03/05 08:43:27;;;;;;;47.47;22.50;;;7.30;99.90;;;;;;5010410;28;20477;-71
2022/03/05 08:45:54;;;;;;;50.43;22.40;;;7.40;99.90;;;;;;5011502;28;20478;-71
2022/03/05 08:48:21;;;;;;;49.60;22.07;;;7.70;99.90;;;;;;5011520;28;20454;-71
2022/03/05 08:50:47;;;;;;;46.80;21.00;;;7.60;99.90;;;;;;5010904;28;20502;-71
2022/03/05 08:53:15;;;;;;;42.70;20.10;;;7.40;99.90;;;;;;5010699;28;21392;-70
2022/03/05 08:55:43;;;;;;;39.57;20.23;;;7.20;99.90;;;;;;5011022;28;20474;-71
2022/03/05 08:58:10;;;;;;;40.30;20.10;;;7.30;99.90;;;;;;5011448;28;20458;-71
2022/03/05 09:00:36;;;;;;;36.90;19.40;;;7.30;99.90;;;;;;5011160;28;20455;-71
2022/03/05 09:03:03;;;;;;;42.43;20.17;;;7.00;99.90;;;;;;5011210;28;20458;-71
2022/03/05 09:05:30;;;;;;;40.17;20.00;;;7.20;99.90;;;;;;5010405;28;20482;-70
2022/03/05 09:07:56;;;;;;;41.07;18.53;;;7.40;99.90;;;;;;5011320;28;20465;-71
2022/03/05 09:10:23;;;;;;;40.43;19.23;;;7.30;99.90;;;;;;5011272;28;20454;-71
2022/03/05 09:12:51;;;;;;;39.47;18.90;;;7.20;99.90;;;;;;5010823;28;20446;-70
2022/03/05 09:15:18;;;;;;;37.10;17.50;;;7.10;99.90;;;;;;5011182;28;20497;-71
2022/03/05 09:17:44;;;;;;;39.60;18.20;;;7.10;99.90;;;;;;5010237;28;20446;-71
2022/03/05 09:20:12;;;;;;;43.57;20.27;;;7.00;99.90;;;;;;5010190;28;20500;-71
2022/03/05 09:22:39;;;;;;;36.73;17.77;;;6.80;99.90;;;;;;5007442;28;20459;-71
2022/03/05 09:25:06;;;;;;;43.63;19.17;;;6.60;99.90;;;;;;5010816;28;20516;-71
2022/03/05 09:27:34;;;;;;;42.50;18.43;;;6.70;99.90;;;;;;5010648;28;20717;-70
2022/03/05 09:30:03;;;;;;;37.53;18.53;;;6.70;99.90;;;;;;5011685;28;20450;-70
2022/03/05 09:32:30;;;;;;;32.40;17.63;;;6.90;99.90;;;;;;5011382;28;20454;-70
2022/03/05 09:34:59;;;;;;;37.97;17.93;;;7.00;99.90;;;;;;5010702;28;20481;-71
2022/03/05 09:37:25;;;;;;;37.00;19.20;;;6.90;99.90;;;;;;5008087;28;20557;-71
2022/03/05 09:39:52;;;;;;;33.80;17.43;;;7.00;99.90;;;;;;5009751;28;20470;-71
2022/03/05 09:42:19;;;;;;;36.93;18.60;;;7.00;99.90;;;;;;5011124;28;20503;-71
2022/03/05 09:44:46;;;;;;;34.90;17.30;;;6.90;99.90;;;;;;5010613;28;20454;-71
2022/03/05 09:47:14;;;;;;;35.80;18.70;;;7.00;99.90;;;;;;5010689;28;21078;-71
2022/03/05 09:49:41;;;;;;;34.17;16.80;;;7.00;99.90;;;;;;5010734;28;20450;-71
2022/03/05 09:52:09;;;;;;;37.80;18.80;;;6.80;99.90;;;;;;5010827;28;20450;-71
2022/03/05 09:54:36;;;;;;;33.50;17.10;;;6.30;99.90;;;;;;5009304;28;20482;-70
2022/03/05 09:57:08;;;;;;;39.40;19.27;;;5.90;99.90;;;;;;5010538;28;20458;-71
2022/03/05 09:59:35;;;;;;;38.43;17.63;;;5.50;99.90;;;;;;5009837;28;20470;-71
2022/03/05 10:02:02;;;;;;;42.87;18.70;;;5.50;99.90;;;;;;5010300;28;20966;-71
2022/03/05 10:04:30;;;;;;;39.90;18.00;;;5.60;99.90;;;;;;5009848;28;20470;-71
2022/03/05 10:07:08;;;;;;;41.13;19.20;;;5.80;99.90;;;;;;5010019;28;20477;-71
2022/03/05 10:09:35;;;;;;;37.63;18.40;;;5.90;99.90;;;;;;5008823;28;20446;-71
2022/03/05 10:12:02;;;;;;;41.97;18.40;;;6.00;99.90;;;;;;5010576;28;20477;-71
2022/03/05 10:14:29;;;;;;;35.23;18.37;;;6.40;99.90;;;;;;5010188;28;20478;-71
2022/03/05 10:17:00;;;;;;;36.60;19.10;;;6.70;99.90;;;;;;5010499;28;20532;-70
2022/03/05 10:19:27;;;;;;;39.87;18.87;;;6.70;99.90;;;;;;5010638;28;20450;-71
2022/03/05 10:22:01;;;;;;;43.30;19.50;;;6.90;99.90;;;;;;5010538;28;20497;-71
2022/03/05 10:24:32;;;;;;;33.30;15.97;;;7.40;99.90;;;;;;5010478;28;20442;-71
2022/03/05 10:27:00;;;;;;;32.80;17.40;;;7.50;99.90;;;;;;5009651;28;20477;-71
2022/03/05 10:29:29;;;;;;;35.67;17.60;;;7.40;99.90;;;;;;5009678;28;20960;-71
2022/03/05 10:32:01;;;;;;;36.53;18.00;;;7.30;99.90;;;;;;5009989;28;20542;-71
2022/03/05 10:34:29;;;;;;;33.03;16.50;;;7.30;99.90;;;;;;5013242;28;20522;-71
2022/03/05 10:37:02;;;;;;;34.87;18.23;;;7.20;99.90;;;;;;5012884;28;21008;-71
2022/03/05 10:39:29;;;;;;;36.23;18.00;;;7.10;99.90;;;;;;5008315;28;20836;-71
2022/03/05 10:41:56;;;;;;;32.00;17.50;;;7.30;99.90;;;;;;5010351;28;21040;-70
2022/03/05 10:44:24;;;;;;;29.03;16.73;;;7.40;99.90;;;;;;5013296;28;20938;-71
2022/03/05 10:46:56;;;;;;;33.80;17.73;;;7.90;99.90;;;;;;5012661;28;20498;-71
2022/03/05 10:49:24;;;;;;;33.73;16.87;;;8.00;99.90;;;;;;5011538;28;20477;-71
2022/03/05 10:51:52;;;;;;;29.67;17.10;;;7.60;99.90;;;;;;5012420;28;20509;-72
2022/03/05 10:54:31;;;;;;;31.70;17.07;;;7.70;99.90;;;;;;5011463;28;20635;-74
2022/03/05 10:57:06;;;;;;;33.47;16.93;;;8.00;99.90;;;;;;5012072;28;20540;-75
2022/03/05 10:59:35;;;;;;;35.17;16.47;;;7.90;99.90;;;;;;5008939;28;20457;-75
2022/03/05 11:02:03;;;;;;;28.10;15.40;;;7.70;99.90;;;;;;5012687;28;20462;-74
2022/03/05 11:04:31;;;;;;;27.83;16.07;;;7.70;99.90;;;;;;5012075;28;20458;-75
2022/03/05 11:06:59;;;;;;;27.33;14.60;;;7.90;99.90;;;;;;5012465;28;20470;-75
2022/03/05 11:09:28;;;;;;;31.90;16.03;;;8.40;99.90;;;;;;5013004;28;20524;-73
2022/03/05 11:11:59;;;;;;;29.87;15.87;;;8.80;99.90;;;;;;5011314;28;20504;-74
2022/03/05 11:14:26;;;;;;;25.97;14.90;;;8.90;99.90;;;;;;5012464;28;20500;-76
2022/03/05 11:16:52;;;;;;;31.20;16.67;;;9.20;99.90;;;;;;5012264;28;20481;-76
2022/03/05 11:19:19;;;;;;;28.73;14.90;;;9.60;99.90;;;;;;5012748;28;20457;-76
2022/03/05 11:21:46;;;;;;;29.27;15.40;;;9.70;99.90;;;;;;5013524;28;20459;-77
2022/03/05 11:24:15;;;;;;;23.63;13.90;;;9.90;99.90;;;;;;5014382;28;20442;-75
2022/03/05 11:26:42;;;;;;;35.93;17.13;;;10.10;99.90;;;;;;5011577;28;20478;-75
2022/03/05 11:29:10;;;;;;;28.50;16.07;;;10.30;99.90;;;;;;5011830;28;20458;-75
2022/03/05 11:31:37;;;;;;;29.30;15.23;;;10.30;99.90;;;;;;5011276;28;20970;-77
2022/03/05 11:34:12;;;;;;;31.43;15.63;;;9.90;99.90;;;;;;5012232;28;20459;-72
2022/03/05 11:36:40;;;;;;;26.17;16.27;;;9.50;99.90;;;;;;5010856;28;20914;-70
2022/03/05 11:39:16;;;;;;;29.30;16.47;;;9.10;99.90;;;;;;5011718;28;20204;-70
2022/03/05 11:41:56;;;;;;;28.30;15.70;;;8.80;99.90;;;;;;5011947;28;20556;-71
2022/03/05 11:44:28;;;;;;;25.57;14.60;;;8.70;99.90;;;;;;5005852;28;20450;-70
2022/03/05 11:47:24;;;;;;;26.90;15.77;;;8.90;99.90;;;;;;5008212;28;21053;-71
2022/03/05 11:50:13;;;;;;;29.27;15.83;;;9.30;99.90;;;;;;5008594;28;20473;-72
2022/03/05 11:53:05;;;;;;;27.33;16.50;;;9.70;99.90;;;;;;5010767;28;20500;-71
2022/03/05 11:55:32;;;;;;;23.13;13.17;;;10.30;99.90;;;;;;5003024;28;20486;-71
2022/03/05 11:58:26;;;;;;;23.83;13.90;;;10.20;99.90;;;;;;5011336;28;20450;-71
2022/03/05 12:00:55;;;;;;;27.70;15.83;;;10.00;99.90;;;;;;5009456;28;20457;-71
2022/03/05 12:03:42;;;;;;;25.17;14.03;;;9.80;99.90;;;;;;5010588;28;20450;-72
2022/03/05 12:06:11;;;;;;;24.67;13.73;;;9.60;99.90;;;;;;5011564;28;20485;-72
2022/03/05 12:08:43;;;;;;;26.55;15.20;;;9.20;99.90;;;;;;5009813;28;20451;-72
2022/03/05 12:11:11;;;;;;;25.27;14.50;;;9.10;99.90;;;;;;5011794;28;20196;-72
2022/03/05 12:13:42;;;;;;;22.17;13.20;;;9.40;99.90;;;;;;5011413;28;20487;-71
2022/03/05 12:16:18;;;;;;;25.07;14.30;;;9.50;99.90;;;;;;5011157;28;20564;-72
2022/03/05 12:18:45;;;;;;;23.63;13.80;;;9.70;99.90;;;;;;5010522;28;20449;-72
2022/03/05 12:21:12;;;;;;;24.47;13.20;;;9.80;99.90;;;;;;5010770;28;20481;-72
2022/03/05 12:23:39;;;;;;;27.30;13.33;;;10.20;99.90;;;;;;5009815;28;20450;-71
2022/03/05 12:26:06;;;;;;;23.53;12.50;;;10.30;99.90;;;;;;5011936;28;20470;-71
2022/03/05 12:28:41;;;;;;;20.40;11.70;;;10.20;99.90;;;;;;5011455;28;20453;-71
2022/03/05 12:31:16;;;;;;;23.13;13.27;;;10.00;99.50;;;;;;5005993;28;20453;-72
2022/03/05 12:33:46;;;;;;;25.00;13.73;;;9.90;99.90;;;;;;5010310;28;20450;-72